MMML Airport Information

Runway Information
Runway 10 Length 8530 ft width 148 ft
Elevation 72 ft Threshold 0 ft Heading 118
Runway 28 Length 8530 ft Width 148 ft
Elevation 72 ft Threshold 0 ft Heading 298
Airport Frequencies
Type AFIS Name MEXICALI I Frequency 123.9 MHZ
Type ATIS Name ATIS Frequency 127.6 MHZ
Type TWR Name MEXICALI T Frequency 118.2 MHZ
Airport Navaids
Type VOR-DME Name Mexicali Frequency 115000 KHZ
Airport Weather Information & NOTAM
ADDS - METARS form results

(1543 UTC 18 October 2018)
Data provider http://aviationweather.gov/metar/data/
 
METAR text: MMML 181452Z 29004KT 10SM SKC 16/03 A3007 RMK SLP186 5//// 957
Conditions at: MMML (MEXICALI INTL AR, MX) observed 1452 UTC 18 October 2018
Temperature: 16.0°C (61°F)
Dewpoint: 3.0°C (37°F) [RH = 42%]
Pressure (altimeter): 30.07 inches Hg (1018.4 mb)
[Sea-level pressure: 1018.6 mb]
Winds: from the WNW (290 degrees) at 5 MPH (4 knots; 2.1 m/s)
Visibility: 10 or more miles (16+ km)
Ceiling: at least 12,000 feet AGL
Clouds: clear skies
Weather: no significant weather observed at this time